sensor_id;sensor_type;location;lat;lon;timestamp;P1;durP1;ratioP1;P2;durP2;ratioP2
52029;SDS011;38043;53.224;6.580;2023-04-06T00:01:21;14.93;;;7.13;;
52029;SDS011;38043;53.224;6.580;2023-04-06T00:03:47;17.05;;;8.02;;
52029;SDS011;38043;53.224;6.580;2023-04-06T00:06:12;12.73;;;7.65;;
52029;SDS011;38043;53.224;6.580;2023-04-06T00:08:38;15.35;;;8.40;;
52029;SDS011;38043;53.224;6.580;2023-04-06T00:11:04;17.02;;;7.72;;
52029;SDS011;38043;53.224;6.580;2023-04-06T00:13:30;13.82;;;7.97;;
52029;SDS011;38043;53.224;6.580;2023-04-06T00:15:56;12.48;;;7.82;;
52029;SDS011;38043;53.224;6.580;2023-04-06T00:18:22;14.35;;;7.97;;
52029;SDS011;38043;53.224;6.580;2023-04-06T00:20:48;13.38;;;8.73;;
52029;SDS011;38043;53.224;6.580;2023-04-06T00:23:13;13.93;;;8.10;;
52029;SDS011;38043;53.224;6.580;2023-04-06T00:25:39;15.13;;;8.43;;
52029;SDS011;38043;53.224;6.580;2023-04-06T00:28:05;14.10;;;8.32;;
52029;SDS011;38043;53.224;6.580;2023-04-06T00:30:31;12.40;;;8.20;;
52029;SDS011;38043;53.224;6.580;2023-04-06T00:32:56;13.00;;;8.50;;
52029;SDS011;38043;53.224;6.580;2023-04-06T00:35:22;13.77;;;8.60;;
52029;SDS011;38043;53.224;6.580;2023-04-06T00:37:47;22.02;;;8.90;;
52029;SDS011;38043;53.224;6.580;2023-04-06T00:40:13;14.77;;;8.88;;
52029;SDS011;38043;53.224;6.580;2023-04-06T00:42:39;13.95;;;8.05;;
52029;SDS011;38043;53.224;6.580;2023-04-06T00:45:05;14.98;;;8.27;;
52029;SDS011;38043;53.224;6.580;2023-04-06T00:47:32;14.32;;;8.38;;
52029;SDS011;38043;53.224;6.580;2023-04-06T00:49:58;14.52;;;8.52;;
52029;SDS011;38043;53.224;6.580;2023-04-06T00:52:24;17.65;;;8.25;;
52029;SDS011;38043;53.224;6.580;2023-04-06T00:54:50;18.67;;;9.23;;
52029;SDS011;38043;53.224;6.580;2023-04-06T00:57:16;14.30;;;9.10;;
52029;SDS011;38043;53.224;6.580;2023-04-06T00:59:42;26.63;;;8.63;;
52029;SDS011;38043;53.224;6.580;2023-04-06T01:02:08;15.63;;;9.20;;
52029;SDS011;38043;53.224;6.580;2023-04-06T01:04:34;16.75;;;9.68;;
52029;SDS011;38043;53.224;6.580;2023-04-06T01:06:59;13.10;;;8.85;;
52029;SDS011;38043;53.224;6.580;2023-04-06T01:09:28;18.02;;;10.20;;
52029;SDS011;38043;53.224;6.580;2023-04-06T01:11:55;17.13;;;10.35;;
52029;SDS011;38043;53.224;6.580;2023-04-06T01:14:21;18.35;;;10.38;;
52029;SDS011;38043;53.224;6.580;2023-04-06T01:16:48;17.08;;;9.60;;
52029;SDS011;38043;53.224;6.580;2023-04-06T01:19:13;17.05;;;9.77;;
52029;SDS011;38043;53.224;6.580;2023-04-06T01:21:39;13.80;;;9.75;;
52029;SDS011;38043;53.224;6.580;2023-04-06T01:24:06;17.80;;;9.63;;
52029;SDS011;38043;53.224;6.580;2023-04-06T01:26:32;15.90;;;9.25;;
52029;SDS011;38043;53.224;6.580;2023-04-06T01:28:58;15.55;;;10.10;;
52029;SDS011;38043;53.224;6.580;2023-04-06T01:31:24;19.88;;;9.32;;
52029;SDS011;38043;53.224;6.580;2023-04-06T01:33:51;14.13;;;9.60;;
52029;SDS011;38043;53.224;6.580;2023-04-06T01:36:17;17.92;;;9.38;;
52029;SDS011;38043;53.224;6.580;2023-04-06T01:38:43;19.23;;;9.65;;
52029;SDS011;38043;53.224;6.580;2023-04-06T01:41:09;23.08;;;10.45;;
52029;SDS011;38043;53.224;6.580;2023-04-06T01:43:34;14.85;;;10.00;;
52029;SDS011;38043;53.224;6.580;2023-04-06T01:46:00;17.05;;;9.82;;
52029;SDS011;38043;53.224;6.580;2023-04-06T01:48:26;16.80;;;9.82;;
52029;SDS011;38043;53.224;6.580;2023-04-06T01:50:52;17.02;;;10.15;;
52029;SDS011;38043;53.224;6.580;2023-04-06T01:53:18;17.88;;;9.95;;
52029;SDS011;38043;53.224;6.580;2023-04-06T01:55:44;15.95;;;9.55;;
52029;SDS011;38043;53.224;6.580;2023-04-06T01:58:10;17.75;;;9.88;;
52029;SDS011;38043;53.224;6.580;2023-04-06T02:00:36;14.23;;;9.23;;
52029;SDS011;38043;53.224;6.580;2023-04-06T02:03:02;14.98;;;9.10;;
52029;SDS011;38043;53.224;6.580;2023-04-06T02:05:28;13.50;;;8.82;;
52029;SDS011;38043;53.224;6.580;2023-04-06T02:07:56;14.20;;;9.18;;
52029;SDS011;38043;53.224;6.580;2023-04-06T02:10:22;18.45;;;10.32;;
52029;SDS011;38043;53.224;6.580;2023-04-06T02:12:48;16.38;;;9.82;;
52029;SDS011;38043;53.224;6.580;2023-04-06T02:15:14;13.63;;;9.55;;
52029;SDS011;38043;53.224;6.580;2023-04-06T02:17:40;13.95;;;9.55;;
52029;SDS011;38043;53.224;6.580;2023-04-06T02:20:06;14.00;;;9.30;;
52029;SDS011;38043;53.224;6.580;2023-04-06T02:22:33;14.00;;;9.52;;
52029;SDS011;38043;53.224;6.580;2023-04-06T02:25:00;16.70;;;9.68;;
52029;SDS011;38043;53.224;6.580;2023-04-06T02:27:26;15.85;;;9.18;;
52029;SDS011;38043;53.224;6.580;2023-04-06T02:29:52;16.42;;;9.18;;
52029;SDS011;38043;53.224;6.580;2023-04-06T02:32:17;14.18;;;9.25;;
52029;SDS011;38043;53.224;6.580;2023-04-06T02:34:43;14.35;;;8.82;;
52029;SDS011;38043;53.224;6.580;2023-04-06T02:37:09;17.48;;;9.43;;
52029;SDS011;38043;53.224;6.580;2023-04-06T02:39:34;16.05;;;9.55;;
52029;SDS011;38043;53.224;6.580;2023-04-06T02:42:00;16.95;;;10.13;;
52029;SDS011;38043;53.224;6.580;2023-04-06T02:44:25;14.43;;;9.57;;
52029;SDS011;38043;53.224;6.580;2023-04-06T02:46:51;14.27;;;10.35;;
52029;SDS011;38043;53.224;6.580;2023-04-06T02:49:17;16.35;;;9.68;;
52029;SDS011;38043;53.224;6.580;2023-04-06T02:51:42;15.82;;;9.90;;
52029;SDS011;38043;53.224;6.580;2023-04-06T02:54:08;16.23;;;10.15;;
52029;SDS011;38043;53.224;6.580;2023-04-06T02:56:34;14.40;;;9.93;;
52029;SDS011;38043;53.224;6.580;2023-04-06T02:58:59;20.85;;;10.02;;
52029;SDS011;38043;53.224;6.580;2023-04-06T03:01:25;16.67;;;9.70;;
52029;SDS011;38043;53.224;6.580;2023-04-06T03:03:51;15.65;;;9.75;;
52029;SDS011;38043;53.224;6.580;2023-04-06T03:06:17;15.65;;;10.20;;
52029;SDS011;38043;53.224;6.580;2023-04-06T03:08:42;20.17;;;10.10;;
52029;SDS011;38043;53.224;6.580;2023-04-06T03:11:08;16.95;;;9.77;;
52029;SDS011;38043;53.224;6.580;2023-04-06T03:13:33;16.65;;;9.32;;
52029;SDS011;38043;53.224;6.580;2023-04-06T03:16:03;17.85;;;9.30;;
52029;SDS011;38043;53.224;6.580;2023-04-06T03:18:29;16.40;;;10.00;;
52029;SDS011;38043;53.224;6.580;2023-04-06T03:20:55;16.85;;;9.57;;
52029;SDS011;38043;53.224;6.580;2023-04-06T03:23:21;14.35;;;9.35;;
52029;SDS011;38043;53.224;6.580;2023-04-06T03:25:46;17.15;;;9.40;;
52029;SDS011;38043;53.224;6.580;2023-04-06T03:28:12;17.40;;;9.75;;
52029;SDS011;38043;53.224;6.580;2023-04-06T03:30:38;15.38;;;9.80;;
52029;SDS011;38043;53.224;6.580;2023-04-06T03:33:03;18.10;;;10.32;;
52029;SDS011;38043;53.224;6.580;2023-04-06T03:35:29;16.73;;;10.38;;
52029;SDS011;38043;53.224;6.580;2023-04-06T03:37:55;17.50;;;10.10;;
52029;SDS011;38043;53.224;6.580;2023-04-06T03:40:20;14.68;;;10.18;;
52029;SDS011;38043;53.224;6.580;2023-04-06T03:42:46;19.42;;;10.77;;
52029;SDS011;38043;53.224;6.580;2023-04-06T03:45:12;16.45;;;10.77;;
52029;SDS011;38043;53.224;6.580;2023-04-06T03:47:38;16.70;;;11.15;;
52029;SDS011;38043;53.224;6.580;2023-04-06T03:50:04;18.02;;;10.43;;
52029;SDS011;38043;53.224;6.580;2023-04-06T03:52:31;21.38;;;11.45;;
52029;SDS011;38043;53.224;6.580;2023-04-06T03:54:56;18.38;;;12.00;;
52029;SDS011;38043;53.224;6.580;2023-04-06T03:57:22;16.85;;;11.00;;
52029;SDS011;38043;53.224;6.580;2023-04-06T03:59:47;15.05;;;10.88;;
52029;SDS011;38043;53.224;6.580;2023-04-06T04:02:13;21.23;;;10.32;;
52029;SDS011;38043;53.224;6.580;2023-04-06T04:04:39;18.48;;;11.68;;
52029;SDS011;38043;53.224;6.580;2023-04-06T04:07:05;17.85;;;10.93;;
52029;SDS011;38043;53.224;6.580;2023-04-06T04:09:30;17.73;;;11.10;;
52029;SDS011;38043;53.224;6.580;2023-04-06T04:11:56;16.63;;;10.43;;
52029;SDS011;38043;53.224;6.580;2023-04-06T04:14:22;19.95;;;10.50;;
52029;SDS011;38043;53.224;6.580;2023-04-06T04:16:47;17.30;;;9.88;;
52029;SDS011;38043;53.224;6.580;2023-04-06T04:19:13;13.95;;;9.57;;
52029;SDS011;38043;53.224;6.580;2023-04-06T04:21:42;16.92;;;10.30;;
52029;SDS011;38043;53.224;6.580;2023-04-06T04:24:09;15.32;;;9.80;;
52029;SDS011;38043;53.224;6.580;2023-04-06T04:26:35;18.13;;;10.90;;
52029;SDS011;38043;53.224;6.580;2023-04-06T04:29:01;15.57;;;9.77;;
52029;SDS011;38043;53.224;6.580;2023-04-06T04:31:27;16.52;;;10.57;;
52029;SDS011;38043;53.224;6.580;2023-04-06T04:33:52;16.67;;;10.43;;
52029;SDS011;38043;53.224;6.580;2023-04-06T04:36:18;19.45;;;10.50;;
52029;SDS011;38043;53.224;6.580;2023-04-06T04:38:43;15.18;;;9.95;;
52029;SDS011;38043;53.224;6.580;2023-04-06T04:41:09;19.75;;;10.48;;
52029;SDS011;38043;53.224;6.580;2023-04-06T04:43:35;16.55;;;10.10;;
52029;SDS011;38043;53.224;6.580;2023-04-06T04:46:00;14.52;;;9.98;;
52029;SDS011;38043;53.224;6.580;2023-04-06T04:48:26;15.27;;;9.57;;
52029;SDS011;38043;53.224;6.580;2023-04-06T04:50:52;14.05;;;10.02;;
52029;SDS011;38043;53.224;6.580;2023-04-06T04:53:17;15.13;;;9.30;;
52029;SDS011;38043;53.224;6.580;2023-04-06T04:55:43;19.27;;;9.85;;
52029;SDS011;38043;53.224;6.580;2023-04-06T04:58:08;15.40;;;9.75;;
52029;SDS011;38043;53.224;6.580;2023-04-06T05:00:36;14.95;;;9.52;;
52029;SDS011;38043;53.224;6.580;2023-04-06T05:03:02;17.38;;;10.05;;
52029;SDS011;38043;53.224;6.580;2023-04-06T05:05:29;20.05;;;9.82;;
52029;SDS011;38043;53.224;6.580;2023-04-06T05:07:56;19.08;;;9.15;;
52029;SDS011;38043;53.224;6.580;2023-04-06T05:10:21;17.58;;;9.45;;
52029;SDS011;38043;53.224;6.580;2023-04-06T05:12:47;16.30;;;9.60;;
52029;SDS011;38043;53.224;6.580;2023-04-06T05:15:12;15.00;;;9.35;;
52029;SDS011;38043;53.224;6.580;2023-04-06T05:17:38;16.25;;;9.27;;
52029;SDS011;38043;53.224;6.580;2023-04-06T05:20:04;14.27;;;9.88;;
52029;SDS011;38043;53.224;6.580;2023-04-06T05:22:30;23.58;;;9.75;;
52029;SDS011;38043;53.224;6.580;2023-04-06T05:24:56;16.73;;;9.48;;
52029;SDS011;38043;53.224;6.580;2023-04-06T05:27:22;29.95;;;13.38;;
52029;SDS011;38043;53.224;6.580;2023-04-06T05:29:47;17.65;;;9.63;;
52029;SDS011;38043;53.224;6.580;2023-04-06T05:32:13;21.15;;;8.93;;
52029;SDS011;38043;53.224;6.580;2023-04-06T05:34:39;17.48;;;9.65;;
52029;SDS011;38043;53.224;6.580;2023-04-06T05:37:05;18.45;;;8.82;;
52029;SDS011;38043;53.224;6.580;2023-04-06T05:39:30;22.40;;;9.65;;
52029;SDS011;38043;53.224;6.580;2023-04-06T05:41:56;14.85;;;10.35;;
52029;SDS011;38043;53.224;6.580;2023-04-06T05:44:21;19.20;;;9.23;;
52029;SDS011;38043;53.224;6.580;2023-04-06T05:46:47;19.85;;;8.85;;
52029;SDS011;38043;53.224;6.580;2023-04-06T05:49:13;17.77;;;8.95;;
52029;SDS011;38043;53.224;6.580;2023-04-06T05:51:38;19.05;;;9.98;;
52029;SDS011;38043;53.224;6.580;2023-04-06T05:54:04;13.55;;;8.35;;
52029;SDS011;38043;53.224;6.580;2023-04-06T05:56:30;13.88;;;8.80;;
52029;SDS011;38043;53.224;6.580;2023-04-06T05:58:56;14.98;;;8.85;;
52029;SDS011;38043;53.224;6.580;2023-04-06T06:01:22;14.48;;;9.30;;
52029;SDS011;38043;53.224;6.580;2023-04-06T06:03:48;18.38;;;8.63;;
52029;SDS011;38043;53.224;6.580;2023-04-06T06:06:14;19.50;;;8.48;;
52029;SDS011;38043;53.224;6.580;2023-04-06T06:08:39;14.93;;;8.18;;
52029;SDS011;38043;53.224;6.580;2023-04-06T06:11:05;20.58;;;9.25;;
52029;SDS011;38043;53.224;6.580;2023-04-06T06:13:31;18.75;;;9.15;;
52029;SDS011;38043;53.224;6.580;2023-04-06T06:15:57;15.50;;;8.52;;
52029;SDS011;38043;53.224;6.580;2023-04-06T06:18:22;16.80;;;8.90;;
52029;SDS011;38043;53.224;6.580;2023-04-06T06:20:48;17.30;;;9.07;;
52029;SDS011;38043;53.224;6.580;2023-04-06T06:23:14;14.68;;;7.97;;
52029;SDS011;38043;53.224;6.580;2023-04-06T06:25:40;17.15;;;7.72;;
52029;SDS011;38043;53.224;6.580;2023-04-06T06:28:05;17.40;;;8.80;;
52029;SDS011;38043;53.224;6.580;2023-04-06T06:30:31;12.40;;;7.93;;
52029;SDS011;38043;53.224;6.580;2023-04-06T06:32:57;17.83;;;8.80;;
52029;SDS011;38043;53.224;6.580;2023-04-06T06:35:22;16.45;;;8.25;;
52029;SDS011;38043;53.224;6.580;2023-04-06T06:37:48;14.60;;;8.38;;
52029;SDS011;38043;53.224;6.580;2023-04-06T06:40:13;14.45;;;8.68;;
52029;SDS011;38043;53.224;6.580;2023-04-06T06:42:41;16.20;;;8.23;;
52029;SDS011;38043;53.224;6.580;2023-04-06T06:45:06;17.45;;;8.68;;
52029;SDS011;38043;53.224;6.580;2023-04-06T06:47:33;18.60;;;8.98;;
52029;SDS011;38043;53.224;6.580;2023-04-06T06:49:58;13.32;;;9.48;;
52029;SDS011;38043;53.224;6.580;2023-04-06T06:52:24;13.93;;;8.95;;
52029;SDS011;38043;53.224;6.580;2023-04-06T06:54:50;19.52;;;9.05;;
52029;SDS011;38043;53.224;6.580;2023-04-06T06:57:15;19.65;;;9.95;;
52029;SDS011;38043;53.224;6.580;2023-04-06T06:59:41;19.35;;;8.63;;
52029;SDS011;38043;53.224;6.580;2023-04-06T07:02:06;12.10;;;8.73;;
52029;SDS011;38043;53.224;6.580;2023-04-06T07:04:32;17.85;;;8.05;;
52029;SDS011;38043;53.224;6.580;2023-04-06T07:06:57;11.88;;;7.88;;
52029;SDS011;38043;53.224;6.580;2023-04-06T07:09:23;11.60;;;8.18;;
52029;SDS011;38043;53.224;6.580;2023-04-06T07:11:49;14.77;;;8.38;;
52029;SDS011;38043;53.224;6.580;2023-04-06T07:14:15;16.40;;;8.38;;
52029;SDS011;38043;53.224;6.580;2023-04-06T07:16:41;17.30;;;8.70;;
52029;SDS011;38043;53.224;6.580;2023-04-06T07:19:07;14.88;;;8.82;;
52029;SDS011;38043;53.224;6.580;2023-04-06T07:21:34;21.50;;;8.73;;
52029;SDS011;38043;53.224;6.580;2023-04-06T07:24:00;16.63;;;8.32;;
52029;SDS011;38043;53.224;6.580;2023-04-06T07:26:26;13.30;;;8.75;;
52029;SDS011;38043;53.224;6.580;2023-04-06T07:28:52;15.98;;;9.32;;
52029;SDS011;38043;53.224;6.580;2023-04-06T07:31:18;16.60;;;8.48;;
52029;SDS011;38043;53.224;6.580;2023-04-06T07:33:43;14.13;;;8.90;;
52029;SDS011;38043;53.224;6.580;2023-04-06T07:36:10;13.18;;;8.45;;
52029;SDS011;38043;53.224;6.580;2023-04-06T07:38:35;16.58;;;8.60;;
52029;SDS011;38043;53.224;6.580;2023-04-06T07:41:01;15.05;;;8.27;;
52029;SDS011;38043;53.224;6.580;2023-04-06T07:43:28;12.95;;;8.23;;
52029;SDS011;38043;53.224;6.580;2023-04-06T07:45:55;16.77;;;9.75;;
52029;SDS011;38043;53.224;6.580;2023-04-06T07:48:22;14.27;;;8.00;;
52029;SDS011;38043;53.224;6.580;2023-04-06T07:50:48;20.50;;;9.00;;
52029;SDS011;38043;53.224;6.580;2023-04-06T07:53:14;16.42;;;8.95;;
52029;SDS011;38043;53.224;6.580;2023-04-06T07:55:39;18.23;;;8.60;;
52029;SDS011;38043;53.224;6.580;2023-04-06T07:58:05;12.57;;;8.60;;
52029;SDS011;38043;53.224;6.580;2023-04-06T08:00:31;12.15;;;8.27;;
52029;SDS011;38043;53.224;6.580;2023-04-06T08:02:57;16.65;;;8.73;;
52029;SDS011;38043;53.224;6.580;2023-04-06T08:05:22;15.55;;;9.10;;
52029;SDS011;38043;53.224;6.580;2023-04-06T08:07:48;13.18;;;8.32;;
52029;SDS011;38043;53.224;6.580;2023-04-06T08:10:13;12.55;;;9.13;;
52029;SDS011;38043;53.224;6.580;2023-04-06T08:12:39;15.60;;;8.35;;
52029;SDS011;38043;53.224;6.580;2023-04-06T08:15:05;12.43;;;7.93;;
52029;SDS011;38043;53.224;6.580;2023-04-06T08:17:31;13.73;;;8.30;;
52029;SDS011;38043;53.224;6.580;2023-04-06T08:19:57;11.43;;;8.43;;
52029;SDS011;38043;53.224;6.580;2023-04-06T08:22:23;12.65;;;8.05;;
52029;SDS011;38043;53.224;6.580;2023-04-06T08:24:48;14.80;;;8.48;;
52029;SDS011;38043;53.224;6.580;2023-04-06T08:27:14;14.82;;;9.57;;
52029;SDS011;38043;53.224;6.580;2023-04-06T08:29:39;14.70;;;8.35;;
52029;SDS011;38043;53.224;6.580;2023-04-06T08:32:06;12.02;;;8.70;;
52029;SDS011;38043;53.224;6.580;2023-04-06T08:34:32;15.70;;;8.93;;
52029;SDS011;38043;53.224;6.580;2023-04-06T08:36:58;16.30;;;9.35;;
52029;SDS011;38043;53.224;6.580;2023-04-06T08:39:24;20.30;;;9.32;;
52029;SDS011;38043;53.224;6.580;2023-04-06T08:41:52;17.95;;;9.20;;
52029;SDS011;38043;53.224;6.580;2023-04-06T08:44:21;17.73;;;9.02;;
52029;SDS011;38043;53.224;6.580;2023-04-06T08:46:47;14.55;;;8.65;;
52029;SDS011;38043;53.224;6.580;2023-04-06T08:49:13;17.38;;;9.05;;
52029;SDS011;38043;53.224;6.580;2023-04-06T08:51:40;13.50;;;8.60;;
52029;SDS011;38043;53.224;6.580;2023-04-06T08:54:07;16.42;;;9.20;;
52029;SDS011;38043;53.224;6.580;2023-04-06T08:56:36;13.75;;;8.60;;
52029;SDS011;38043;53.224;6.580;2023-04-06T08:59:03;15.00;;;8.77;;
52029;SDS011;38043;53.224;6.580;2023-04-06T09:01:29;14.38;;;8.73;;
52029;SDS011;38043;53.224;6.580;2023-04-06T09:03:57;16.88;;;9.43;;
52029;SDS011;38043;53.224;6.580;2023-04-06T09:06:25;16.35;;;8.52;;
52029;SDS011;38043;53.224;6.580;2023-04-06T09:08:56;16.70;;;8.57;;
52029;SDS011;38043;53.224;6.580;2023-04-06T09:11:23;13.38;;;8.27;;
52029;SDS011;38043;53.224;6.580;2023-04-06T09:13:50;11.95;;;8.77;;
52029;SDS011;38043;53.224;6.580;2023-04-06T09:18:43;16.50;;;8.50;;
52029;SDS011;38043;53.224;6.580;2023-04-06T09:21:09;14.43;;;8.35;;
52029;SDS011;38043;53.224;6.580;2023-04-06T09:23:36;14.48;;;8.93;;
52029;SDS011;38043;53.224;6.580;2023-04-06T09:26:05;18.50;;;8.60;;
52029;SDS011;38043;53.224;6.580;2023-04-06T09:28:48;13.70;;;8.68;;
52029;SDS011;38043;53.224;6.580;2023-04-06T09:31:16;16.40;;;9.20;;
52029;SDS011;38043;53.224;6.580;2023-04-06T09:33:48;13.45;;;7.97;;
52029;SDS011;38043;53.224;6.580;2023-04-06T09:36:14;15.05;;;8.73;;
52029;SDS011;38043;53.224;6.580;2023-04-06T09:38:53;14.48;;;8.23;;
52029;SDS011;38043;53.224;6.580;2023-04-06T09:41:26;13.18;;;8.93;;
52029;SDS011;38043;53.224;6.580;2023-04-06T09:44:09;14.90;;;8.82;;
52029;SDS011;38043;53.224;6.580;2023-04-06T09:46:39;14.20;;;8.60;;
52029;SDS011;38043;53.224;6.580;2023-04-06T09:49:07;15.95;;;8.23;;
52029;SDS011;38043;53.224;6.580;2023-04-06T09:51:41;15.80;;;8.70;;
52029;SDS011;38043;53.224;6.580;2023-04-06T09:54:18;12.07;;;8.93;;
52029;SDS011;38043;53.224;6.580;2023-04-06T09:56:46;16.15;;;9.35;;
52029;SDS011;38043;53.224;6.580;2023-04-06T10:02:02;15.65;;;9.27;;
52029;SDS011;38043;53.224;6.580;2023-04-06T10:04:40;12.18;;;8.57;;
52029;SDS011;38043;53.224;6.580;2023-04-06T10:07:12;14.35;;;9.60;;
52029;SDS011;38043;53.224;6.580;2023-04-06T10:09:38;18.27;;;10.00;;
52029;SDS011;38043;53.224;6.580;2023-04-06T10:12:04;12.85;;;8.82;;
52029;SDS011;38043;53.224;6.580;2023-04-06T10:14:34;16.48;;;9.52;;
52029;SDS011;38043;53.224;6.580;2023-04-06T10:17:03;16.92;;;10.10;;
52029;SDS011;38043;53.224;6.580;2023-04-06T10:19:36;15.30;;;9.48;;
52029;SDS011;38043;53.224;6.580;2023-04-06T10:22:29;16.77;;;10.15;;
52029;SDS011;38043;53.224;6.580;2023-04-06T10:25:03;14.95;;;9.57;;
52029;SDS011;38043;53.224;6.580;2023-04-06T10:27:29;13.02;;;9.93;;
52029;SDS011;38043;53.224;6.580;2023-04-06T10:30:00;16.40;;;10.43;;
52029;SDS011;38043;53.224;6.580;2023-04-06T10:32:37;20.48;;;10.57;;
52029;SDS011;38043;53.224;6.580;2023-04-06T10:35:05;16.05;;;10.32;;
52029;SDS011;38043;53.224;6.580;2023-04-06T10:38:00;19.92;;;11.10;;
52029;SDS011;38043;53.224;6.580;2023-04-06T10:40:27;17.75;;;10.45;;
52029;SDS011;38043;53.224;6.580;2023-04-06T10:42:53;18.58;;;11.50;;
52029;SDS011;38043;53.224;6.580;2023-04-06T10:45:23;19.00;;;11.15;;
52029;SDS011;38043;53.224;6.580;2023-04-06T10:47:53;17.42;;;11.75;;
52029;SDS011;38043;53.224;6.580;2023-04-06T10:50:19;21.95;;;12.07;;
52029;SDS011;38043;53.224;6.580;2023-04-06T10:52:46;18.88;;;11.20;;
52029;SDS011;38043;53.224;6.580;2023-04-06T10:55:12;15.65;;;10.77;;
52029;SDS011;38043;53.224;6.580;2023-04-06T10:57:40;16.77;;;11.55;;
52029;SDS011;38043;53.224;6.580;2023-04-06T11:00:06;18.65;;;11.57;;
52029;SDS011;38043;53.224;6.580;2023-04-06T11:02:33;19.30;;;11.63;;
52029;SDS011;38043;53.224;6.580;2023-04-06T11:05:00;18.48;;;11.95;;
52029;SDS011;38043;53.224;6.580;2023-04-06T11:07:26;17.25;;;12.40;;
52029;SDS011;38043;53.224;6.580;2023-04-06T11:09:54;23.45;;;13.98;;
52029;SDS011;38043;53.224;6.580;2023-04-06T11:12:20;20.15;;;13.55;;
52029;SDS011;38043;53.224;6.580;2023-04-06T11:14:57;20.58;;;14.90;;
52029;SDS011;38043;53.224;6.580;2023-04-06T11:17:34;22.52;;;16.73;;
52029;SDS011;38043;53.224;6.580;2023-04-06T11:20:01;28.25;;;17.70;;
52029;SDS011;38043;53.224;6.580;2023-04-06T11:22:28;25.67;;;17.42;;
52029;SDS011;38043;53.224;6.580;2023-04-06T11:25:04;29.67;;;19.55;;
52029;SDS011;38043;53.224;6.580;2023-04-06T11:27:31;29.60;;;19.17;;
52029;SDS011;38043;53.224;6.580;2023-04-06T11:30:01;27.92;;;19.80;;
52029;SDS011;38043;53.224;6.580;2023-04-06T11:32:28;31.58;;;18.73;;
52029;SDS011;38043;53.224;6.580;2023-04-06T11:34:54;29.20;;;19.00;;
52029;SDS011;38043;53.224;6.580;2023-04-06T11:37:22;34.78;;;20.33;;
52029;SDS011;38043;53.224;6.580;2023-04-06T11:39:51;31.25;;;20.33;;
52029;SDS011;38043;53.224;6.580;2023-04-06T11:42:26;38.38;;;20.98;;
52029;SDS011;38043;53.224;6.580;2023-04-06T11:44:54;27.13;;;19.63;;
52029;SDS011;38043;53.224;6.580;2023-04-06T11:47:34;39.67;;;20.88;;
52029;SDS011;38043;53.224;6.580;2023-04-06T11:50:08;36.35;;;19.77;;
52029;SDS011;38043;53.224;6.580;2023-04-06T11:52:35;28.63;;;19.52;;
52029;SDS011;38043;53.224;6.580;2023-04-06T11:55:13;31.63;;;19.43;;
52029;SDS011;38043;53.224;6.580;2023-04-06T11:57:40;28.42;;;18.73;;
52029;SDS011;38043;53.224;6.580;2023-04-06T12:00:10;28.35;;;19.90;;
52029;SDS011;38043;53.224;6.580;2023-04-06T12:02:37;27.00;;;19.45;;
52029;SDS011;38043;53.224;6.580;2023-04-06T12:05:03;28.42;;;20.60;;
52029;SDS011;38043;53.224;6.580;2023-04-06T12:07:31;28.50;;;20.40;;
52029;SDS011;38043;53.224;6.580;2023-04-06T12:09:58;29.25;;;20.15;;
52029;SDS011;38043;53.224;6.580;2023-04-06T12:12:24;29.55;;;20.00;;
52029;SDS011;38043;53.224;6.580;2023-04-06T12:14:50;24.80;;;18.80;;
52029;SDS011;38043;53.224;6.580;2023-04-06T12:17:16;26.27;;;19.05;;
52029;SDS011;38043;53.224;6.580;2023-04-06T12:19:43;27.52;;;19.83;;
52029;SDS011;38043;53.224;6.580;2023-04-06T12:22:08;25.75;;;19.38;;
52029;SDS011;38043;53.224;6.580;2023-04-06T12:24:34;29.40;;;19.75;;
52029;SDS011;38043;53.224;6.580;2023-04-06T12:27:00;29.40;;;20.38;;
52029;SDS011;38043;53.224;6.580;2023-04-06T12:29:26;27.67;;;19.60;;
52029;SDS011;38043;53.224;6.580;2023-04-06T12:31:52;26.67;;;19.08;;
52029;SDS011;38043;53.224;6.580;2023-04-06T12:34:18;30.55;;;18.42;;
52029;SDS011;38043;53.224;6.580;2023-04-06T12:36:43;29.45;;;19.60;;
52029;SDS011;38043;53.224;6.580;2023-04-06T12:39:09;27.92;;;18.67;;
52029;SDS011;38043;53.224;6.580;2023-04-06T12:41:36;28.45;;;19.17;;
52029;SDS011;38043;53.224;6.580;2023-04-06T12:44:02;32.95;;;19.73;;
52029;SDS011;38043;53.224;6.580;2023-04-06T12:46:28;28.63;;;19.52;;
52029;SDS011;38043;53.224;6.580;2023-04-06T12:48:57;26.17;;;19.13;;
52029;SDS011;38043;53.224;6.580;2023-04-06T12:51:24;24.80;;;18.73;;
52029;SDS011;38043;53.224;6.580;2023-04-06T12:53:52;27.48;;;19.60;;
52029;SDS011;38043;53.224;6.580;2023-04-06T12:56:18;26.95;;;19.25;;
52029;SDS011;38043;53.224;6.580;2023-04-06T12:58:44;25.33;;;18.75;;
52029;SDS011;38043;53.224;6.580;2023-04-06T13:01:10;26.67;;;19.25;;
52029;SDS011;38043;53.224;6.580;2023-04-06T13:03:42;31.17;;;19.15;;
52029;SDS011;38043;53.224;6.580;2023-04-06T13:06:08;28.58;;;19.55;;
52029;SDS011;38043;53.224;6.580;2023-04-06T13:08:34;33.88;;;18.90;;
52029;SDS011;38043;53.224;6.580;2023-04-06T13:11:02;26.50;;;19.35;;
52029;SDS011;38043;53.224;6.580;2023-04-06T13:13:28;29.35;;;19.95;;
52029;SDS011;38043;53.224;6.580;2023-04-06T13:15:55;29.85;;;19.48;;
52029;SDS011;38043;53.224;6.580;2023-04-06T13:18:26;29.42;;;18.98;;
52029;SDS011;38043;53.224;6.580;2023-04-06T13:20:51;28.33;;;18.77;;
52029;SDS011;38043;53.224;6.580;2023-04-06T13:23:17;29.58;;;19.33;;
52029;SDS011;38043;53.224;6.580;2023-04-06T13:25:43;28.08;;;19.02;;
52029;SDS011;38043;53.224;6.580;2023-04-06T13:28:08;25.55;;;18.02;;
52029;SDS011;38043;53.224;6.580;2023-04-06T13:30:35;28.02;;;18.83;;
52029;SDS011;38043;53.224;6.580;2023-04-06T13:33:01;28.45;;;18.42;;
52029;SDS011;38043;53.224;6.580;2023-04-06T13:35:27;28.17;;;19.52;;
52029;SDS011;38043;53.224;6.580;2023-04-06T13:37:52;29.02;;;19.13;;
52029;SDS011;38043;53.224;6.580;2023-04-06T13:40:18;32.92;;;19.58;;
52029;SDS011;38043;53.224;6.580;2023-04-06T13:42:45;30.87;;;18.80;;
52029;SDS011;38043;53.224;6.580;2023-04-06T13:45:12;29.45;;;18.88;;
52029;SDS011;38043;53.224;6.580;2023-04-06T13:47:38;27.20;;;18.23;;
52029;SDS011;38043;53.224;6.580;2023-04-06T13:50:03;27.15;;;19.63;;
52029;SDS011;38043;53.224;6.580;2023-04-06T13:52:30;24.90;;;17.58;;
52029;SDS011;38043;53.224;6.580;2023-04-06T13:54:55;31.90;;;18.95;;
52029;SDS011;38043;53.224;6.580;2023-04-06T13:57:21;28.00;;;18.50;;
52029;SDS011;38043;53.224;6.580;2023-04-06T13:59:46;23.48;;;16.80;;
52029;SDS011;38043;53.224;6.580;2023-04-06T14:02:14;27.27;;;16.55;;
52029;SDS011;38043;53.224;6.580;2023-04-06T14:04:40;29.85;;;17.02;;
52029;SDS011;38043;53.224;6.580;2023-04-06T14:07:05;23.90;;;16.35;;
52029;SDS011;38043;53.224;6.580;2023-04-06T14:09:34;25.10;;;16.63;;
52029;SDS011;38043;53.224;6.580;2023-04-06T14:12:01;25.55;;;14.68;;
52029;SDS011;38043;53.224;6.580;2023-04-06T14:14:27;24.33;;;15.00;;
52029;SDS011;38043;53.224;6.580;2023-04-06T14:16:52;20.20;;;14.13;;
52029;SDS011;38043;53.224;6.580;2023-04-06T14:19:19;24.67;;;15.15;;
52029;SDS011;38043;53.224;6.580;2023-04-06T14:21:46;19.30;;;13.88;;
52029;SDS011;38043;53.224;6.580;2023-04-06T14:24:13;21.50;;;14.88;;
52029;SDS011;38043;53.224;6.580;2023-04-06T14:26:39;18.83;;;13.00;;
52029;SDS011;38043;53.224;6.580;2023-04-06T14:29:06;20.50;;;13.48;;
52029;SDS011;38043;53.224;6.580;2023-04-06T14:31:32;18.92;;;13.80;;